Česky Dansk Deutsch English Español Suomi Français Magyar Italiano Nederlands norsk Polski Português svenska Türkçe

 

Het Weer

Lannion / Servel (Frankrijk)

19:00, 21 août 2016 (GMT)

NWNNE
WE
SWSSE
Home            
Lannion / Servel Morlaix / Ploujean Saint-Brieuc Landivisiau Brest Lanveoc Poulmic Guernsey Airport Quimper Dinard Jersey Airport Lann Bihoue Alderney / Channel Island Rennes Cherbourg / Maupertus Plymouth St-Nazaire Plymouth / Roborough Culdrose Portland / Rnas Saint Mawgan Exeter Airport Nantes Caen

Om een weerknop op uw website of weblog te plaatsen, copieer onderstaande code en plak die in uw pagina. In het eerste vakje staat HTML-code, in het tweede vakje UBB-code.


Add to Google

Details

Wind speed:3 bf, 7 kn, 3.6 m/s, 8.1 miles/h, 13.0 km/h
Wind direction:SSW, 210°
Näkyvyys:Supérieure à 10000 m, 10 km, 32800 ft, 6.2 miles
Clouds:CAVOC
Température:18°C, 64°F
Point de rosée:13°C, 55°F
Pression atmosphérique:1025 hPa, 768.8 mmHg, 30.27 inHg, 1.012 atm
Humidité relative:72.6 %
METAR:LFRO 211900Z AUTO 21007KT CAVOK 18/13 Q1025 NOSIG

Snelkoppelingen

Actuele weersinformatie van de hele wereld. Voeg locaties toe met het plus (+) symbool. Deze snelkoppelingen kunnen worden toegevoegd aan Google.

Lid van de Technetium groep

website free tracking
StatCounter NetStat W3C Validator

17-04-2021 05:09:08
astro.technetium.be money.technetium.be phote.technetium.be tafeltennistafel.technetium.be www.ligfiets.net